Time;durP1;ratioP1;P1;durP2;ratioP2;P2;SDS_P1;SDS_P2;PMS_P1;PMS_P2;Temp;Humidity;BMP_temperature;BMP_pressure;BME280_temperature;BME280_humidity;BME280_pressure;Samples;Min_cycle;Max_cycle;Signal;HPM_P1;HPM_P2
2022/01/09 00:02:14;;;;;;;56.22;24.58;;;;;;;-2.80;100.00;98650.41;5086895;28;20035;-74
2022/01/09 00:04:58;;;;;;;62.60;28.08;;;;;;;-2.89;100.00;98652.03;5115964;28;20440;-74
2022/01/09 00:07:43;;;;;;;107.53;40.17;;;;;;;-2.94;100.00;98653.69;5115975;28;20035;-74
2022/01/09 00:10:30;;;;;;;91.88;38.25;;;;;;;-3.01;100.00;98653.63;5083957;28;20055;-74
2022/01/09 00:13:15;;;;;;;76.13;31.02;;;;;;;-3.06;100.00;98646.72;5115847;28;20039;-74
2022/01/09 00:15:59;;;;;;;69.65;30.23;;;;;;;-3.08;100.00;98642.44;5089333;28;20062;-74
2022/01/09 00:18:44;;;;;;;80.20;32.08;;;;;;;-3.11;100.00;98642.41;5104596;28;20047;-74
2022/01/09 00:21:28;;;;;;;90.15;36.45;;;;;;;-3.19;100.00;98633.75;5090166;28;20090;-74
2022/01/09 00:24:13;;;;;;;88.50;38.63;;;;;;;-3.35;100.00;98618.25;5101846;28;20058;-74
2022/01/09 00:26:57;;;;;;;73.10;32.10;;;;;;;-3.35;100.00;98630.16;5104410;28;20379;-74
2022/01/09 00:29:43;;;;;;;64.15;29.75;;;;;;;-3.40;100.00;98631.81;5104422;28;20040;-74
2022/01/09 00:32:27;;;;;;;64.70;28.48;;;;;;;-3.40;100.00;98625.00;5090229;28;20044;-74
2022/01/09 00:35:12;;;;;;;56.75;26.58;;;;;;;-3.37;100.00;98630.16;5118617;28;20051;-74
2022/01/09 00:37:57;;;;;;;58.63;28.08;;;;;;;-3.40;100.00;98613.91;5119297;28;20063;-74
2022/01/09 00:40:42;;;;;;;53.05;25.98;;;;;;;-3.41;100.00;98618.16;5104189;28;20036;-74
2022/01/09 00:43:26;;;;;;;49.75;25.05;;;;;;;-3.42;100.00;98615.56;5106838;27;20051;-74
2022/01/09 00:46:11;;;;;;;52.80;24.27;;;;;;;-3.46;100.00;98618.94;5119155;28;20360;-74
2022/01/09 00:48:55;;;;;;;53.13;24.90;;;;;;;-3.53;100.00;98615.47;5119098;28;20036;-74
2022/01/09 00:51:40;;;;;;;46.80;21.13;;;;;;;-3.61;100.00;98599.13;5089652;28;20040;-74
2022/01/09 00:54:25;;;;;;;47.28;21.67;;;;;;;-3.53;100.00;98618.03;5103839;28;20317;-74
2022/01/09 00:57:10;;;;;;;48.63;22.63;;;;;;;-3.61;100.00;98617.03;5103808;28;20040;-74
2022/01/09 00:59:54;;;;;;;56.65;24.40;;;;;;;-3.76;100.00;98604.94;5118805;28;20427;-74
2022/01/09 01:02:39;;;;;;;58.55;25.85;;;;;;;-3.91;100.00;98591.94;5072496;28;20047;-74
2022/01/09 01:05:24;;;;;;;63.95;27.58;;;;;;;-4.07;100.00;98545.66;5103720;28;20035;-74
2022/01/09 01:08:08;;;;;;;56.53;25.77;;;;;;;-4.00;100.00;98565.41;5118729;28;20047;-74
2022/01/09 01:10:52;;;;;;;61.17;24.52;;;;;;;-3.84;100.00;98597.13;5103449;28;20035;-74
2022/01/09 01:13:37;;;;;;;61.28;25.33;;;;;;;-4.06;100.00;98575.56;5089422;28;20052;-74
2022/01/09 01:16:21;;;;;;;60.03;25.10;;;;;;;-4.05;100.00;98576.41;5103488;28;20035;-74
2022/01/09 01:19:06;;;;;;;64.63;30.35;;;;;;;-4.15;100.00;98572.00;5089148;28;20447;-74
2022/01/09 01:21:51;;;;;;;63.70;29.88;;;;;;;-4.23;100.00;98565.06;5118443;28;20441;-74
2022/01/09 01:24:37;;;;;;;57.67;25.13;;;;;;;-4.18;100.00;98561.72;5103369;28;20044;-74
2022/01/09 01:27:21;;;;;;;58.08;28.75;;;;;;;-4.19;100.00;98568.56;5117603;28;20352;-74
2022/01/09 01:30:08;;;;;;;56.50;24.42;;;;;;;-4.26;100.00;98549.72;5103226;28;20039;-74
2022/01/09 01:32:52;;;;;;;56.45;25.52;;;;;;;-4.30;100.00;98552.19;5088810;28;20085;-74
2022/01/09 01:35:36;;;;;;;55.85;26.27;;;;;;;-4.55;100.00;98510.94;5117620;28;20046;-74
2022/01/09 01:38:21;;;;;;;55.47;24.45;;;;;;;-4.41;100.00;98535.84;5089062;28;20094;-74
2022/01/09 01:41:06;;;;;;;45.72;23.05;;;;;;;-4.42;100.00;98527.28;5088889;28;20040;-75
2022/01/09 01:43:50;;;;;;;52.17;23.10;;;;;;;-4.51;100.00;98512.69;5102926;28;20047;-73
2022/01/09 01:46:34;;;;;;;53.15;24.10;;;;;;;-4.54;100.00;98511.81;5102998;28;20062;-74
2022/01/09 01:49:19;;;;;;;49.40;23.10;;;;;;;-4.54;100.00;98501.56;5088792;28;20045;-74
2022/01/09 01:52:04;;;;;;;49.58;22.35;;;;;;;-4.53;100.00;98493.06;5102651;28;20059;-74
2022/01/09 01:54:49;;;;;;;46.63;21.38;;;;;;;-4.47;100.00;98505.94;5102673;28;20035;-74
2022/01/09 01:57:34;;;;;;;45.22;20.58;;;;;;;-4.34;100.00;98497.59;5117968;28;20035;-74
2022/01/09 02:00:20;;;;;;;48.60;23.52;;;;;;;-4.30;100.00;98501.91;5102700;28;20490;-74
2022/01/09 02:03:05;;;;;;;50.80;23.42;;;;;;;-4.24;100.00;98498.56;5088243;28;20313;-74
2022/01/09 02:05:49;;;;;;;52.72;25.63;;;;;;;-4.18;100.00;98495.25;5088181;28;20039;-74
2022/01/09 02:08:33;;;;;;;53.88;23.83;;;;;;;-4.08;100.00;98491.97;5102680;28;20058;-74
2022/01/09 02:11:18;;;;;;;55.65;24.85;;;;;;;-4.10;100.00;98479.13;5088185;28;20078;-74
2022/01/09 02:14:04;;;;;;;50.15;22.75;;;;;;;-4.03;100.00;98486.06;5117473;28;20428;-75
2022/01/09 02:16:50;;;;;;;56.97;23.85;;;;;;;-4.05;100.00;98474.09;5102294;28;20039;-74
2022/01/09 02:19:34;;;;;;;45.88;22.20;;;;;;;-3.98;100.00;98483.56;5102322;28;20047;-74
2022/01/09 02:22:19;;;;;;;47.35;20.85;;;;;;;-3.96;100.00;98473.31;5102023;28;20043;-74
2022/01/09 02:25:05;;;;;;;44.80;20.65;;;;;;;-4.04;100.00;98466.41;5087888;28;20047;-74
2022/01/09 02:27:50;;;;;;;41.13;19.33;;;;;;;-4.03;100.00;98465.59;5117220;28;20066;-74
2022/01/09 02:30:36;;;;;;;39.97;19.48;;;;;;;-4.02;100.00;98463.91;5117229;28;20352;-74
2022/01/09 02:33:20;;;;;;;43.80;20.48;;;;;;;-4.08;100.00;98448.47;5119012;27;20043;-74
2022/01/09 02:36:05;;;;;;;40.63;19.02;;;;;;;-4.09;100.00;98446.78;5130771;27;20440;-74
2022/01/09 02:38:49;;;;;;;44.80;21.55;;;;;;;-4.15;100.00;98437.31;5099224;28;20047;-74
2022/01/09 02:41:34;;;;;;;43.70;21.60;;;;;;;-4.12;100.00;98441.63;5101876;28;20074;-74
2022/01/09 02:44:19;;;;;;;45.83;22.13;;;;;;;-4.21;100.00;98427.00;5101904;28;20039;-74
2022/01/09 02:47:06;;;;;;;63.05;26.63;;;;;;;-4.19;100.00;98425.34;5101743;28;20451;-74
2022/01/09 02:49:53;;;;;;;107.40;38.53;;;;;;;-4.26;100.00;98416.75;5118659;27;20176;-74
2022/01/09 02:52:49;;;;;;;74.72;29.88;;;;;;;-4.26;100.00;98413.31;5116430;28;20056;-74
2022/01/09 02:55:33;;;;;;;55.35;24.17;;;;;;;-4.29;100.00;98406.47;5087318;28;20047;-74
2022/01/09 02:58:18;;;;;;;42.97;21.65;;;;;;;-4.34;100.00;98402.13;5101720;28;20047;-74
2022/01/09 03:01:04;;;;;;;45.50;21.02;;;;;;;-4.58;100.00;98372.91;5101508;28;20063;-74
2022/01/09 03:03:48;;;;;;;43.25;19.80;;;;;;;-4.42;100.00;98384.13;5130370;27;20398;-74
2022/01/09 03:06:33;;;;;;;43.17;20.15;;;;;;;-4.38;100.00;98388.47;5115912;28;20348;-74
2022/01/09 03:09:18;;;;;;;41.47;19.65;;;;;;;-4.45;100.00;98391.78;5087423;28;20050;-74
2022/01/09 03:12:04;;;;;;;41.65;21.45;;;;;;;-4.57;100.00;98369.50;5087118;28;20074;-74
2022/01/09 03:14:49;;;;;;;41.15;20.70;;;;;;;-4.53;100.00;98371.25;5101373;28;20108;-74
2022/01/09 03:17:33;;;;;;;44.28;20.92;;;;;;;-4.57;100.00;98381.41;5087364;28;20455;-74
2022/01/09 03:20:24;;;;;;;50.90;21.30;;;;;;;-4.57;100.00;98381.41;5087399;28;20056;-74
2022/01/09 03:23:09;;;;;;;48.17;21.52;;;;;;;-4.50;100.00;98388.31;5101270;28;20092;-74
2022/01/09 03:25:53;;;;;;;43.25;19.58;;;;;;;-4.54;100.00;98378.91;5101309;28;20089;-74
2022/01/09 03:28:37;;;;;;;46.30;20.80;;;;;;;-4.55;100.00;98389.94;5116420;28;20469;-74
2022/01/09 03:31:22;;;;;;;49.42;21.35;;;;;;;-4.64;100.00;98374.53;5116464;28;20039;-74
2022/01/09 03:34:06;;;;;;;53.22;21.77;;;;;;;-4.64;100.00;98382.19;5101179;28;20427;-74
2022/01/09 03:36:51;;;;;;;50.28;22.30;;;;;;;-4.70;100.00;98365.94;5086979;28;20044;-74
2022/01/09 03:39:35;;;;;;;48.65;22.45;;;;;;;-4.75;100.00;98367.53;5087046;28;20043;-74
2022/01/09 03:42:19;;;;;;;54.00;22.02;;;;;;;-4.72;100.00;98384.63;5101092;28;20352;-74
2022/01/09 03:45:05;;;;;;;52.10;22.60;;;;;;;-4.75;100.00;98390.53;5129904;28;20036;-74
2022/01/09 03:47:50;;;;;;;49.90;22.67;;;;;;;-4.72;100.00;98384.63;5116161;28;20043;-74
2022/01/09 03:50:35;;;;;;;44.88;21.55;;;;;;;-4.70;100.00;98377.84;5089193;28;20035;-74
2022/01/09 03:53:20;;;;;;;44.42;21.38;;;;;;;-4.68;100.00;98381.25;5090659;28;20052;-74
2022/01/09 03:56:04;;;;;;;47.60;22.55;;;;;;;-4.66;100.00;98373.63;5090864;28;20047;-73
2022/01/09 03:58:49;;;;;;;48.00;21.90;;;;;;;-4.72;100.00;98365.03;5104993;28;20455;-73
2022/01/09 04:01:33;;;;;;;49.05;21.52;;;;;;;-4.68;100.00;98363.38;5120090;28;20044;-73
2022/01/09 04:04:17;;;;;;;40.45;21.13;;;;;;;-4.61;100.00;98366.88;5133786;27;20039;-74
2022/01/09 04:07:02;;;;;;;47.15;22.30;;;;;;;-4.66;100.00;98364.25;5119949;28;20397;-74
2022/01/09 04:09:48;;;;;;;43.03;20.52;;;;;;;-4.60;100.00;98363.50;5104804;28;20040;-74
2022/01/09 04:12:35;;;;;;;43.25;21.75;;;;;;;-4.57;100.00;98369.50;5119822;28;20067;-74
2022/01/09 04:15:20;;;;;;;54.63;23.20;;;;;;;-4.59;100.00;98373.72;5104539;28;20420;-74
2022/01/09 04:18:05;;;;;;;47.58;22.95;;;;;;;-4.53;100.00;98365.28;5101808;28;20066;-74
2022/01/09 04:20:51;;;;;;;46.47;23.85;;;;;;;-4.44;100.00;98380.72;5090234;28;20043;-74
2022/01/09 04:23:35;;;;;;;45.20;21.02;;;;;;;-4.39;100.00;98373.94;5119822;28;20044;-74
2022/01/09 04:26:21;;;;;;;49.15;22.70;;;;;;;-4.29;100.00;98378.34;5090185;28;20336;-74
2022/01/09 04:29:06;;;;;;;48.17;22.05;;;;;;;-4.13;100.00;98363.16;5119576;28;20039;-74
2022/01/09 04:31:50;;;;;;;49.85;23.73;;;;;;;-4.05;100.00;98371.78;5119449;28;20428;-74
2022/01/09 04:34:34;;;;;;;51.47;21.90;;;;;;;-4.05;100.00;98364.09;5119518;28;20047;-74
2022/01/09 04:37:19;;;;;;;44.17;21.15;;;;;;;-3.92;100.00;98365.94;5104206;28;20044;-74
2022/01/09 04:40:05;;;;;;;42.50;20.70;;;;;;;-3.83;100.00;98370.28;5104197;28;20040;-74
2022/01/09 04:45:34;;;;;;;47.67;22.75;;;;;;;-3.74;100.00;98369.50;5119226;28;20127;-74
2022/01/09 04:48:19;;;;;;;41.80;21.70;;;;;;;-3.65;100.00;98372.16;5104069;28;20056;-74
2022/01/09 04:51:05;;;;;;;45.10;21.55;;;;;;;-3.63;100.00;98362.78;5103924;28;20054;-74
2022/01/09 04:53:49;;;;;;;49.75;22.08;;;;;;;-3.50;100.00;98364.59;5103606;28;20063;-74
2022/01/09 04:56:34;;;;;;;48.95;20.80;;;;;;;-3.41;100.00;98363.81;5118353;28;20435;-74
2022/01/09 04:59:18;;;;;;;40.78;20.00;;;;;;;-3.36;100.00;98360.44;5089725;28;20046;-74
2022/01/09 05:02:02;;;;;;;46.92;23.40;;;;;;;-3.25;100.00;98349.41;5102465;28;20039;-74
2022/01/09 05:04:47;;;;;;;44.53;21.08;;;;;;;-3.22;100.00;98352.00;5118048;28;20044;-74
2022/01/09 05:07:32;;;;;;;45.38;22.95;;;;;;;-3.11;100.00;98353.78;5118992;28;20059;-74
2022/01/09 05:10:17;;;;;;;58.72;23.83;;;;;;;-3.06;100.00;98353.81;5118697;28;20084;-74
2022/01/09 05:13:01;;;;;;;44.70;21.85;;;;;;;-3.07;100.00;98341.84;5103763;28;20043;-74
2022/01/09 05:15:45;;;;;;;45.03;22.98;;;;;;;-3.01;100.00;98357.25;5118600;28;20039;-74
2022/01/09 05:18:30;;;;;;;43.83;23.40;;;;;;;-3.03;100.00;98337.59;5118556;28;20055;-74
2022/01/09 05:21:14;;;;;;;39.58;20.33;;;;;;;-3.07;100.00;98344.41;5118519;28;20058;-74
2022/01/09 05:23:59;;;;;;;38.85;20.80;;;;;;;-3.02;100.00;98352.13;5118401;28;20119;-74
2022/01/09 05:26:43;;;;;;;44.22;20.95;;;;;;;-3.07;100.00;98340.13;5118318;28;20055;-74
2022/01/09 05:29:27;;;;;;;43.35;20.30;;;;;;;-3.21;100.00;98334.09;5118701;28;20055;-74
2022/01/09 05:32:12;;;;;;;36.35;19.45;;;;;;;-3.22;100.00;98339.19;5118378;28;20039;-74
2022/01/09 05:34:57;;;;;;;47.53;21.90;;;;;;;-3.32;100.00;98341.69;5118240;28;20047;-74
2022/01/09 05:37:41;;;;;;;49.83;22.58;;;;;;;-3.32;100.00;98336.56;5103169;28;20039;-74
2022/01/09 05:40:26;;;;;;;47.30;22.27;;;;;;;-3.29;100.00;98335.72;5088867;28;20036;-74
2022/01/09 05:43:11;;;;;;;47.28;23.17;;;;;;;-3.35;100.00;98346.81;5103172;28;20097;-74
2022/01/09 05:45:55;;;;;;;44.75;23.60;;;;;;;-3.40;100.00;98345.06;5102948;28;20160;-74
2022/01/09 05:48:40;;;;;;;48.30;24.70;;;;;;;-3.48;100.00;98337.28;5118063;28;20044;-74
2022/01/09 05:51:24;;;;;;;46.20;23.00;;;;;;;-3.44;100.00;98338.19;5102854;28;20063;-74
2022/01/09 05:54:08;;;;;;;41.35;23.00;;;;;;;-3.48;100.00;98344.13;5088631;28;20047;-74
2022/01/09 05:56:53;;;;;;;44.97;24.00;;;;;;;-3.51;100.00;98347.50;5102809;28;20039;-74
2022/01/09 05:59:38;;;;;;;45.17;23.33;;;;;;;-3.67;100.00;98331.19;5088431;28;20040;-74
2022/01/09 06:02:22;;;;;;;48.72;20.98;;;;;;;-3.60;100.00;98350.88;5131475;27;20040;-74
2022/01/09 06:05:07;;;;;;;49.92;21.77;;;;;;;-3.64;100.00;98354.25;5102205;28;20046;-74
2022/01/09 06:07:51;;;;;;;55.65;24.45;;;;;;;-3.71;100.00;98342.22;5088021;28;20047;-74
2022/01/09 06:10:36;;;;;;;59.42;25.35;;;;;;;-3.70;100.00;98356.75;5085741;28;20067;-74
2022/01/09 06:13:20;;;;;;;61.53;29.30;;;;;;;-3.74;100.00;98349.03;5102209;28;20051;-74
2022/01/09 06:16:05;;;;;;;61.80;29.55;;;;;;;-3.85;100.00;98349.78;5102305;28;20378;-74
2022/01/09 06:18:49;;;;;;;72.22;32.88;;;;;;;-3.84;100.00;98354.06;5102280;28;20040;-74
2022/01/09 06:21:34;;;;;;;76.50;32.40;;;;;;;-3.87;100.00;98348.06;5085357;28;20055;-74
2022/01/09 06:24:18;;;;;;;71.47;35.90;;;;;;;-3.94;100.00;98354.81;5102182;28;20059;-74
2022/01/09 06:27:03;;;;;;;81.57;38.17;;;;;;;-4.16;100.00;98314.53;5102115;28;20115;-74
2022/01/09 06:29:48;;;;;;;87.88;40.22;;;;;;;-4.07;100.00;98338.50;5117108;28;20496;-74
2022/01/09 06:32:32;;;;;;;95.72;39.65;;;;;;;-4.10;100.00;98341.03;5102231;28;20184;-74
2022/01/09 06:35:17;;;;;;;82.53;35.45;;;;;;;-4.02;100.00;98356.47;5087660;28;20439;-74
2022/01/09 06:38:02;;;;;;;54.58;26.48;;;;;;;-4.14;100.00;98348.66;5085017;28;20059;-74
2022/01/09 06:40:46;;;;;;;45.75;22.67;;;;;;;-4.13;100.00;98345.25;5087305;28;20046;-74
2022/01/09 06:43:31;;;;;;;45.42;22.38;;;;;;;-4.17;100.00;98344.38;5101320;28;20035;-74
2022/01/09 06:46:15;;;;;;;39.08;21.38;;;;;;;-4.21;100.00;98337.50;5130327;27;20355;-74
2022/01/09 06:49:00;;;;;;;34.70;19.52;;;;;;;-4.33;100.00;98337.38;5087229;28;20035;-74
2022/01/09 06:51:44;;;;;;;33.15;18.17;;;;;;;-4.27;100.00;98340.00;5115923;28;20047;-74
2022/01/09 06:54:29;;;;;;;36.70;20.25;;;;;;;-4.21;100.00;98346.88;5087899;28;20044;-74
2022/01/09 06:57:13;;;;;;;37.60;21.30;;;;;;;-4.24;100.00;98345.16;5101770;28;20047;-74
2022/01/09 06:59:58;;;;;;;42.35;22.77;;;;;;;-4.21;100.00;98340.06;5101873;28;20043;-74
2022/01/09 07:02:42;;;;;;;54.65;27.10;;;;;;;-4.17;100.00;98346.91;5087361;28;20096;-74
2022/01/09 07:05:26;;;;;;;50.53;28.83;;;;;;;-4.12;100.00;98344.44;5087829;28;20048;-74
2022/01/09 07:08:11;;;;;;;49.80;27.95;;;;;;;-4.04;100.00;98353.03;5087833;28;20036;-74
2022/01/09 07:10:56;;;;;;;71.22;35.97;;;;;;;-4.06;100.00;98341.94;5116714;28;20040;-74
2022/01/09 07:13:40;;;;;;;62.90;30.33;;;;;;;-3.97;100.00;98341.16;5087412;28;20055;-74
2022/01/09 07:16:25;;;;;;;48.70;26.92;;;;;;;-4.01;100.00;98324.91;5087408;28;20039;-74
2022/01/09 07:19:09;;;;;;;64.47;32.35;;;;;;;-3.89;100.00;98340.38;5087822;28;20084;-74
2022/01/09 07:21:54;;;;;;;68.10;33.33;;;;;;;-3.86;100.00;98335.31;5087382;28;20371;-74
2022/01/09 07:24:38;;;;;;;58.55;30.30;;;;;;;-3.78;100.00;98343.03;5101289;28;20060;-74
2022/01/09 07:27:22;;;;;;;58.97;31.15;;;;;;;-3.67;100.00;98330.31;5102042;28;20032;-74
2022/01/09 07:30:08;;;;;;;60.10;32.38;;;;;;;-3.67;100.00;98322.63;5130762;28;20119;-74
2022/01/09 07:32:52;;;;;;;67.97;34.60;;;;;;;-3.68;100.00;98306.44;5116409;28;20054;-74
2022/01/09 07:35:36;;;;;;;68.43;36.03;;;;;;;-3.50;100.00;98331.31;5087311;28;20040;-74
2022/01/09 07:38:21;;;;;;;69.13;35.78;;;;;;;-3.49;100.00;98317.66;5116966;28;20043;-74
2022/01/09 07:41:05;;;;;;;69.35;34.10;;;;;;;-3.41;100.00;98315.16;5116475;28;20044;-74
2022/01/09 07:43:49;;;;;;;60.58;31.75;;;;;;;-3.33;100.00;98323.75;5101878;28;20047;-74
2022/01/09 07:46:34;;;;;;;62.28;31.48;;;;;;;-3.30;100.00;98316.09;5084462;28;20067;-74
2022/01/09 07:49:18;;;;;;;54.72;29.17;;;;;;;-3.21;100.00;98315.31;5101511;28;20051;-74
2022/01/09 07:52:03;;;;;;;57.53;30.85;;;;;;;-3.00;100.00;98317.97;5116332;28;20052;-74
2022/01/09 07:54:48;;;;;;;92.22;41.13;;;;;;;-2.78;100.00;98318.94;5101439;28;20040;-74
2022/01/09 07:57:32;;;;;;;90.03;39.65;;;;;;;-2.63;100.00;98315.59;5116538;28;20043;-74
2022/01/09 08:00:19;;;;;;;85.70;38.85;;;;;;;-2.49;100.00;98313.06;5070326;28;20051;-74
2022/01/09 08:03:04;;;;;;;97.00;39.90;;;;;;;-2.29;100.00;98311.41;5116277;28;20035;-74
2022/01/09 08:05:49;;;;;;;81.22;37.10;;;;;;;-2.03;100.00;98321.72;5116469;28;20044;-74
2022/01/09 08:08:33;;;;;;;68.95;31.73;;;;;;;-1.79;100.00;98309.78;5087364;28;20035;-74
2022/01/09 08:11:18;;;;;;;83.88;37.63;;;;;;;-1.76;100.00;98302.06;5101647;28;20039;-75
2022/01/09 08:14:02;;;;;;;84.03;37.25;;;;;;;-1.44;100.00;98314.91;5101502;28;20396;-75
2022/01/09 08:16:46;;;;;;;117.45;51.15;;;;;;;-1.29;100.00;98311.47;5084169;28;20128;-74
2022/01/09 08:19:31;;;;;;;103.65;46.08;;;;;;;-0.98;100.00;98315.69;5101161;28;20043;-75
2022/01/09 08:22:16;;;;;;;113.15;52.38;;;;;;;-0.87;100.00;98292.53;5101262;28;20043;-75
2022/01/09 08:25:03;;;;;;;150.27;72.95;;;;;;;-0.76;100.00;98310.47;5116480;28;20039;-75
2022/01/09 08:27:48;;;;;;;90.60;43.05;;;;;;;-0.66;100.00;98304.44;5101312;28;20141;-75
2022/01/09 08:30:32;;;;;;;89.78;41.33;;;;;;;-0.50;100.00;98302.66;5116056;28;20040;-75
2022/01/09 08:33:17;;;;;;;118.03;50.35;;;;;;;-0.33;100.00;98294.84;5101348;28;20056;-75
2022/01/09 08:36:01;;;;;;;102.47;43.65;;;;;;;-0.09;100.00;98304.16;5101951;28;20039;-75
2022/01/09 08:38:48;;;;;;;102.18;43.80;;;;;;;-0.04;100.00;98304.97;5104454;28;20048;-75
2022/01/09 08:41:33;;;;;;;93.72;39.30;;;;;;;0.15;100.00;98291.09;5119322;28;20044;-75
2022/01/09 08:44:18;;;;;;;144.18;63.60;;;;;;;0.23;100.00;98303.94;5119324;28;20093;-75
2022/01/09 08:47:03;;;;;;;111.97;51.38;;;;;;;0.26;100.00;98303.91;5119593;28;20047;-75
2022/01/09 08:49:47;;;;;;;250.77;115.10;;;;;;;0.25;100.00;98303.91;5089894;28;20039;-75
2022/01/09 08:52:32;;;;;;;147.13;70.82;;;;;;;0.47;100.00;98319.19;5104160;28;20079;-75
2022/01/09 08:55:17;;;;;;;190.82;92.63;;;;;;;0.39;100.00;98302.06;5089630;28;20043;-75
2022/01/09 08:58:01;;;;;;;108.93;50.67;;;;;;;0.69;100.00;98308.72;5103765;28;20051;-75
2022/01/09 09:00:46;;;;;;;96.20;46.17;;;;;;;0.70;100.00;98318.13;5102478;28;20031;-75
2022/01/09 09:03:30;;;;;;;126.45;63.85;;;;;;;0.95;100.00;98305.88;5117142;28;20066;-75
2022/01/09 09:06:15;;;;;;;95.55;49.97;;;;;;;1.03;100.00;98316.09;5102225;28;20040;-75
2022/01/09 09:09:00;;;;;;;68.75;33.50;;;;;;;1.03;100.00;98314.38;5102795;28;20036;-75
2022/01/09 09:11:44;;;;;;;66.85;33.92;;;;;;;1.08;100.00;98296.28;5102754;28;20047;-75
2022/01/09 09:14:28;;;;;;;59.35;30.60;;;;;;;1.17;100.00;98293.59;5117330;28;20044;-76
2022/01/09 09:17:13;;;;;;;64.35;32.20;;;;;;;1.42;100.00;98304.47;5101576;28;20036;-75
2022/01/09 09:19:58;;;;;;;68.93;36.67;;;;;;;1.39;100.00;98309.66;5101827;28;20063;-75
2022/01/09 09:22:43;;;;;;;59.47;31.73;;;;;;;1.32;100.00;98289.97;5101658;28;20039;-75
2022/01/09 09:25:27;;;;;;;70.72;32.33;;;;;;;1.54;100.00;98293.16;5116611;28;20070;-75
2022/01/09 09:28:12;;;;;;;94.28;39.30;;;;;;;1.75;100.00;98287.69;5102959;28;20039;-75
2022/01/09 09:30:56;;;;;;;53.13;26.25;;;;;;;1.67;100.00;98289.53;5118485;28;20043;-75
2022/01/09 09:33:41;;;;;;;61.88;29.00;;;;;;;1.67;100.00;98286.94;5103359;28;20325;-75
2022/01/09 09:36:25;;;;;;;62.83;29.48;;;;;;;1.78;100.00;98287.66;5118331;28;20328;-75
2022/01/09 09:39:12;;;;;;;50.47;23.70;;;;;;;1.83;100.00;98274.69;5089529;28;20044;-75
2022/01/09 09:41:56;;;;;;;58.20;30.55;;;;;;;1.77;100.00;98273.03;5088861;28;20420;-75
2022/01/09 09:44:40;;;;;;;52.60;25.70;;;;;;;1.95;100.00;98279.69;5103109;28;20423;-75
2022/01/09 09:47:25;;;;;;;51.08;25.00;;;;;;;1.90;100.00;98239.31;5102506;28;20127;-75
2022/01/09 09:50:14;;;;;;;56.58;25.33;;;;;;;1.66;100.00;98223.31;5118050;28;20051;-75
2022/01/09 09:52:59;;;;;;;45.85;23.33;;;;;;;2.07;100.00;98276.91;5088482;28;20101;-75
2022/01/09 09:55:46;;;;;;;39.28;22.15;;;;;;;1.97;100.00;98258.97;5117930;28;20401;-76
2022/01/09 09:58:30;;;;;;;97.18;42.85;;;;;;;2.08;100.00;98262.25;5118106;28;20104;-75
2022/01/09 10:01:35;;;;;;;109.38;44.00;;;;;;;2.21;100.00;98281.00;5118292;28;20114;-76
2022/01/09 10:04:20;;;;;;;278.77;110.38;;;;;;;2.06;100.00;98225.28;5102886;28;20036;-76
2022/01/09 10:07:05;;;;;;;439.60;137.13;;;;;;;2.13;100.00;98265.63;5105314;27;20135;-76
2022/01/09 10:09:59;;;;;;;1032.55;382.75;;;;;;;2.16;100.00;98268.16;5117765;28;20101;-75
2022/01/09 10:12:47;;;;;;;473.70;147.68;;;;;;;2.00;100.00;98246.88;5088200;28;20066;-76
2022/01/09 10:15:44;;;;;;;246.57;73.85;;;;;;;2.14;100.00;98281.97;5088252;28;20420;-75
2022/01/09 10:18:46;;;;;;;187.02;53.00;;;;;;;2.23;100.00;98284.41;5117998;28;20533;-75
2022/01/09 10:21:30;;;;;;;419.58;146.32;;;;;;;2.19;100.00;98283.63;5119219;27;20056;-75
2022/01/09 10:24:15;;;;;;;170.90;63.13;;;;;;;2.31;100.00;98272.25;5117576;28;20069;-75
2022/01/09 10:27:00;;;;;;;75.82;32.17;;;;;;;2.18;100.00;98260.38;5117830;28;20475;-76
2022/01/09 10:29:49;;;;;;;76.95;33.42;;;;;;;2.42;100.00;98262.56;5117121;28;20054;-76
2022/01/09 10:32:34;;;;;;;182.63;79.05;;;;;;;2.48;100.00;98266.78;5117510;28;20123;-75
2022/01/09 10:35:19;;;;;;;57.92;28.52;;;;;;;2.51;100.00;98258.97;5087682;28;20035;-75
2022/01/09 10:38:13;;;;;;;44.88;19.75;;;;;;;2.47;100.00;98246.97;5119062;27;20082;-76
2022/01/09 10:41:00;;;;;;;;;;;;;;;2.55;100.00;98247.72;5102413;28;20105;-76
2022/01/09 10:43:44;;;;;;;76.15;35.53;;;;;;;2.51;100.00;98239.16;5101676;28;19919;-75
2022/01/09 10:46:31;;;;;;;34.42;19.95;;;;;;;2.46;100.00;98225.44;5117239;28;20040;-75
2022/01/09 10:49:15;;;;;;;61.22;36.00;;;;;;;2.62;100.00;98227.78;5117410;28;20119;-76
2022/01/09 10:52:22;;;;;;;92.13;42.78;;;;;;;2.58;100.00;98225.25;5117186;28;20043;-75
2022/01/09 10:55:09;;;;;;;161.70;78.15;;;;;;;2.50;100.00;98229.72;5117256;28;20440;-76
2022/01/09 10:57:53;;;;;;;58.72;26.40;;;;;;;2.50;100.00;98237.47;5087485;28;20352;-75
2022/01/09 11:00:37;;;;;;;39.40;19.58;;;;;;;2.76;100.00;98247.34;5086442;28;20059;-76
2022/01/09 11:03:22;;;;;;;165.95;89.43;;;;;;;2.85;100.00;98246.28;5087357;28;20046;-76
2022/01/09 11:06:08;;;;;;;73.68;36.47;;;;;;;2.90;100.00;98249.66;5116611;28;20035;-74
2022/01/09 11:08:54;;;;;;;44.92;22.38;;;;;;;2.80;100.00;98238.63;5101778;28;20047;-73
2022/01/09 11:11:40;;;;;;;40.22;20.02;;;;;;;2.76;100.00;98237.00;5101604;28;20130;-73
2022/01/09 11:14:27;;;;;;;51.42;24.10;;;;;;;2.80;100.00;98243.81;5116484;28;20043;-73
2022/01/09 11:17:12;;;;;;;33.63;17.55;;;;;;;2.82;100.00;98241.16;5087628;28;20128;-73
2022/01/09 11:19:57;;;;;;;66.10;31.38;;;;;;;2.79;100.00;98224.00;5087938;28;20039;-73
2022/01/09 11:22:43;;;;;;;47.92;23.10;;;;;;;2.88;100.00;98241.06;5101927;28;20070;-74
2022/01/09 11:25:40;;;;;;;33.95;17.00;;;;;;;2.96;100.00;98246.09;5116559;28;20043;-73
2022/01/09 11:28:30;;;;;;;39.88;17.95;;;;;;;2.86;100.00;98231.63;5087488;28;20040;-73
2022/01/09 11:31:35;;;;;;;43.45;19.92;;;;;;;2.84;100.00;98231.66;5101358;28;20055;-74
2022/01/09 11:34:31;;;;;;;48.40;22.50;;;;;;;2.94;100.00;98240.94;5116681;28;20062;-74
2022/01/09 11:37:25;;;;;;;50.47;23.38;;;;;;;2.88;100.00;98242.78;5115712;28;20047;-73
2022/01/09 11:40:31;;;;;;;45.38;22.23;;;;;;;2.91;100.00;98240.16;5087370;28;20187;-73
2022/01/09 11:43:18;;;;;;;35.53;17.33;;;;;;;2.68;100.00;98223.34;5116374;28;20039;-73
2022/01/09 11:46:03;;;;;;;40.70;18.77;;;;;;;2.78;100.00;98224.88;5101538;28;20044;-76
2022/01/09 11:48:51;;;;;;;53.38;23.42;;;;;;;2.81;100.00;98227.41;5101190;28;20062;-76
2022/01/09 11:51:36;;;;;;;46.00;18.77;;;;;;;2.91;100.00;98237.56;5101305;28;20101;-77
2022/01/09 11:54:22;;;;;;;79.47;35.17;;;;;;;3.01;100.00;98239.94;5101366;28;20035;-76
2022/01/09 11:57:08;;;;;;;39.05;18.90;;;;;;;2.90;100.00;98228.97;5116327;28;20119;-76
2022/01/09 11:59:53;;;;;;;26.95;13.27;;;;;;;2.92;100.00;98229.75;5115671;28;20089;-76
2022/01/09 12:02:38;;;;;;;33.20;15.55;;;;;;;2.93;100.00;98222.88;5100728;28;20446;-76
2022/01/09 12:05:23;;;;;;;41.97;19.20;;;;;;;2.98;100.00;98237.41;5115634;28;20040;-76
2022/01/09 12:08:09;;;;;;;33.70;17.88;;;;;;;2.96;100.00;98235.75;5099084;28;20068;-76
2022/01/09 12:10:53;;;;;;;31.92;16.10;;;;;;;2.91;100.00;98235.84;5100196;28;20096;-76
2022/01/09 12:13:41;;;;;;;43.75;21.40;;;;;;;2.92;100.00;98229.75;5102995;28;20071;-77
2022/01/09 12:16:49;;;;;;;37.30;18.35;;;;;;;2.79;100.00;98220.53;5086073;28;20051;-76
2022/01/09 12:20:08;;;;;;;52.40;23.65;;;;;;;2.90;100.00;98230.69;5086028;28;20075;-76
2022/01/09 12:23:06;;;;;;;39.63;18.13;;;;;;;2.80;100.00;98236.03;5117875;28;20036;-76
2022/01/09 12:25:52;;;;;;;28.35;15.35;;;;;;;2.72;100.00;98230.16;5102786;28;20329;-76
2022/01/09 12:28:44;;;;;;;38.15;17.42;;;;;;;2.74;100.00;98230.13;5118053;28;20048;-77
2022/01/09 12:31:28;;;;;;;36.08;17.35;;;;;;;2.74;100.00;98225.81;5088469;28;20035;-76
2022/01/09 12:34:13;;;;;;;28.77;14.90;;;;;;;2.71;100.00;98236.22;5087436;28;20112;-76
2022/01/09 12:36:57;;;;;;;27.48;13.25;;;;;;;2.63;100.00;98219.97;5105028;28;20040;-76
2022/01/09 12:39:46;;;;;;;42.72;20.38;;;;;;;2.50;100.00;98208.16;5104435;28;20042;-76